Time;durP1;ratioP1;P1;durP2;ratioP2;P2;SDS_P1;SDS_P2;PMS_P1;PMS_P2;Temp;Humidity;BMP_temperature;BMP_pressure;BME280_temperature;BME280_humidity;BME280_pressure;Samples;Min_cycle;Max_cycle;Signal;HPM_P1;HPM_P2
2020/12/10 00:01:03;;;;;;;33.38;17.10;;;;;;;;;;5066412;28;20221;-48
2020/12/10 00:03:31;;;;;;;33.22;19.08;;;;;;;;;;5053999;28;20197;-56
2020/12/10 00:05:58;;;;;;;33.38;17.90;;;;;;;;;;5056128;28;20207;-53
2020/12/10 00:08:31;;;;;;;31.58;17.67;;;;;;;;;;5048962;28;20218;-51
2020/12/10 00:11:09;;;;;;;29.33;16.45;;;;;;;;;;5063392;28;20221;-48
2020/12/10 00:14:13;;;;;;;31.45;16.65;;;;;;;;;;5060392;28;20211;-52
2020/12/10 00:17:14;;;;;;;25.33;15.80;;;;;;;;;;5075473;28;20199;-50
2020/12/10 00:20:18;;;;;;;30.80;17.27;;;;;;;;;;5069388;28;20207;-46
2020/12/10 00:22:45;;;;;;;30.60;16.55;;;;;;;;;;5068070;28;20206;-47
2020/12/10 00:25:13;;;;;;;30.70;17.77;;;;;;;;;;5074422;28;20210;-47
2020/12/10 00:28:00;;;;;;;26.65;16.27;;;;;;;;;;5065511;28;20251;-53
2020/12/10 00:30:31;;;;;;;28.02;15.23;;;;;;;;;;5075383;28;20207;-49
2020/12/10 00:33:19;;;;;;;31.77;15.98;;;;;;;;;;5062462;28;20238;-53
2020/12/10 00:35:49;;;;;;;28.27;16.48;;;;;;;;;;5073044;28;20258;-53
2020/12/10 00:38:33;;;;;;;21.80;14.93;;;;;;;;;;5074041;28;20222;-51
2020/12/10 00:41:05;;;;;;;28.25;16.13;;;;;;;;;;5074829;28;20220;-53
2020/12/10 00:43:50;;;;;;;25.13;15.77;;;;;;;;;;5073648;28;20191;-45
2020/12/10 00:46:23;;;;;;;31.33;17.33;;;;;;;;;;5062698;28;20443;-53
2020/12/10 00:48:59;;;;;;;27.58;16.45;;;;;;;;;;5052490;28;20255;-53
2020/12/10 00:51:41;;;;;;;40.88;16.38;;;;;;;;;;5045026;28;20208;-51
2020/12/10 00:54:09;;;;;;;31.98;18.00;;;;;;;;;;5043731;28;20196;-47
2020/12/10 00:56:51;;;;;;;25.90;15.90;;;;;;;;;;5053647;28;20201;-48
2020/12/10 00:59:53;;;;;;;26.35;14.63;;;;;;;;;;5053842;28;20192;-52
2020/12/10 01:02:26;;;;;;;30.05;17.73;;;;;;;;;;5054304;28;20210;-51
2020/12/10 01:04:53;;;;;;;31.65;16.35;;;;;;;;;;5073959;28;20208;-50
2020/12/10 01:07:20;;;;;;;26.65;16.95;;;;;;;;;;5074496;28;20195;-48
2020/12/10 01:10:06;;;;;;;33.53;17.40;;;;;;;;;;5074449;28;20242;-52
2020/12/10 01:12:45;;;;;;;27.45;16.25;;;;;;;;;;5073851;28;20557;-52
2020/12/10 01:15:12;;;;;;;30.95;16.50;;;;;;;;;;5075574;28;20207;-50
2020/12/10 01:17:46;;;;;;;28.58;15.63;;;;;;;;;;5074608;28;20218;-51
2020/12/10 01:20:37;;;;;;;29.60;17.45;;;;;;;;;;5057298;28;20186;-51
2020/12/10 01:23:07;;;;;;;28.85;15.50;;;;;;;;;;5073624;28;20231;-53
2020/12/10 01:25:34;;;;;;;34.90;17.33;;;;;;;;;;5074102;28;20248;-54
2020/12/10 01:28:05;;;;;;;27.13;15.18;;;;;;;;;;5074534;28;20215;-47
2020/12/10 01:30:37;;;;;;;25.98;15.57;;;;;;;;;;5071568;28;20238;-47
2020/12/10 01:33:03;;;;;;;26.83;15.30;;;;;;;;;;5073107;28;20200;-53
2020/12/10 01:38:14;;;;;;;33.00;15.88;;;;;;;;;;5062120;28;20239;-52
2020/12/10 01:43:34;;;;;;;24.83;14.48;;;;;;;;;;5013257;28;20197;-58
2020/12/10 01:46:20;;;;;;;30.40;17.40;;;;;;;;;;5011630;28;20213;-48
2020/12/10 01:49:13;;;;;;;20.83;12.88;;;;;;;;;;5008005;28;20227;-60
2020/12/10 01:51:40;;;;;;;27.70;15.63;;;;;;;;;;5051166;28;20209;-50
2020/12/10 01:54:10;;;;;;;30.88;16.00;;;;;;;;;;5053524;28;20207;-51
2020/12/10 01:56:48;;;;;;;25.13;15.75;;;;;;;;;;5053775;28;20191;-52
2020/12/10 01:59:14;;;;;;;22.77;15.40;;;;;;;;;;5052720;28;20218;-49
2020/12/10 02:01:51;;;;;;;27.95;15.30;;;;;;;;;;5053303;28;20215;-54
2020/12/10 02:04:30;;;;;;;29.98;15.80;;;;;;;;;;5053247;28;20215;-54
2020/12/10 02:06:58;;;;;;;27.25;16.63;;;;;;;;;;5053749;28;20235;-49
2020/12/10 02:09:33;;;;;;;27.05;16.77;;;;;;;;;;5053144;28;20216;-50
2020/12/10 02:12:10;;;;;;;24.05;16.45;;;;;;;;;;5052092;28;20222;-56
2020/12/10 02:14:37;;;;;;;27.10;14.95;;;;;;;;;;5052897;28;20246;-56
2020/12/10 02:17:05;;;;;;;29.40;17.23;;;;;;;;;;5053653;28;20203;-51
2020/12/10 02:19:41;;;;;;;26.17;16.15;;;;;;;;;;5052692;28;20316;-50
2020/12/10 02:22:09;;;;;;;27.63;15.38;;;;;;;;;;5052295;28;20265;-56
2020/12/10 02:24:43;;;;;;;28.80;15.68;;;;;;;;;;5037379;28;20231;-54
2020/12/10 02:27:10;;;;;;;25.38;14.55;;;;;;;;;;5053096;28;20196;-55
2020/12/10 02:29:36;;;;;;;27.33;16.20;;;;;;;;;;5053134;28;20240;-55
2020/12/10 02:32:05;;;;;;;29.77;17.83;;;;;;;;;;5053321;28;20192;-53
2020/12/10 02:34:33;;;;;;;30.83;18.02;;;;;;;;;;5053851;28;20200;-53
2020/12/10 02:37:04;;;;;;;28.50;16.23;;;;;;;;;;5052572;28;20215;-57
2020/12/10 02:39:34;;;;;;;25.20;14.77;;;;;;;;;;5052132;28;20200;-50
2020/12/10 02:42:02;;;;;;;25.90;15.70;;;;;;;;;;5052215;28;20340;-56
2020/12/10 02:44:28;;;;;;;33.42;15.68;;;;;;;;;;5056386;28;20203;-55
2020/12/10 02:47:04;;;;;;;31.85;16.63;;;;;;;;;;5056397;28;20276;-51
2020/12/10 02:49:31;;;;;;;28.85;17.00;;;;;;;;;;5055912;28;20255;-49
2020/12/10 02:51:59;;;;;;;29.58;16.95;;;;;;;;;;5055460;28;20212;-57
2020/12/10 02:54:26;;;;;;;28.52;16.38;;;;;;;;;;5057061;28;20253;-53
2020/12/10 02:56:54;;;;;;;30.38;16.70;;;;;;;;;;5076861;28;20202;-52
2020/12/10 02:59:25;;;;;;;24.50;15.25;;;;;;;;;;5076329;28;20200;-52
2020/12/10 03:01:55;;;;;;;28.80;17.55;;;;;;;;;;5076933;28;20350;-50
2020/12/10 03:04:35;;;;;;;31.08;17.30;;;;;;;;;;5074809;28;20223;-51
2020/12/10 03:07:02;;;;;;;34.40;18.80;;;;;;;;;;5076141;28;20210;-53
2020/12/10 03:09:33;;;;;;;30.50;17.92;;;;;;;;;;5076217;28;20268;-54
2020/12/10 03:12:13;;;;;;;30.20;18.13;;;;;;;;;;5073368;28;20299;-50
2020/12/10 03:14:41;;;;;;;29.55;16.65;;;;;;;;;;5075727;28;20320;-56
2020/12/10 03:17:11;;;;;;;29.50;17.65;;;;;;;;;;5076552;28;20231;-52
2020/12/10 03:19:41;;;;;;;29.38;17.15;;;;;;;;;;5074820;28;20242;-49
2020/12/10 03:22:17;;;;;;;31.65;18.38;;;;;;;;;;5076198;28;20323;-49
2020/12/10 03:24:46;;;;;;;26.38;16.35;;;;;;;;;;5075818;28;20225;-47
2020/12/10 03:27:21;;;;;;;26.50;16.60;;;;;;;;;;5075920;28;20192;-50
2020/12/10 03:30:06;;;;;;;27.08;16.00;;;;;;;;;;5076004;28;20246;-47
2020/12/10 03:32:38;;;;;;;32.50;16.50;;;;;;;;;;5074971;28;20624;-51
2020/12/10 03:35:05;;;;;;;29.90;17.23;;;;;;;;;;5075694;28;20179;-55
2020/12/10 03:37:33;;;;;;;28.92;17.33;;;;;;;;;;5075541;28;20211;-53
2020/12/10 03:43:04;;;;;;;28.63;15.65;;;;;;;;;;5075655;28;20249;-56
2020/12/10 03:45:39;;;;;;;32.38;17.10;;;;;;;;;;5074272;28;20751;-50
2020/12/10 03:48:07;;;;;;;27.27;16.83;;;;;;;;;;5074957;28;20245;-49
2020/12/10 03:50:53;;;;;;;31.30;18.40;;;;;;;;;;5077165;28;20186;-56
2020/12/10 03:53:19;;;;;;;30.38;18.23;;;;;;;;;;5075945;28;20202;-49
2020/12/10 03:55:46;;;;;;;29.45;16.60;;;;;;;;;;5074096;28;20211;-52
2020/12/10 03:58:14;;;;;;;27.45;17.65;;;;;;;;;;5075751;28;20350;-52
2020/12/10 04:01:16;;;;;;;33.05;19.90;;;;;;;;;;5073401;28;20295;-56
2020/12/10 04:03:46;;;;;;;30.50;18.13;;;;;;;;;;5074938;28;20275;-55
2020/12/10 04:06:13;;;;;;;31.05;16.65;;;;;;;;;;5075427;28;20212;-51
2020/12/10 04:08:40;;;;;;;31.80;17.30;;;;;;;;;;5075673;28;20265;-58
2020/12/10 04:11:07;;;;;;;26.67;16.67;;;;;;;;;;5075312;28;20245;-55
2020/12/10 04:13:35;;;;;;;28.13;17.73;;;;;;;;;;5075195;28;20211;-49
2020/12/10 04:16:02;;;;;;;32.47;18.15;;;;;;;;;;5074275;28;20206;-56
2020/12/10 04:18:40;;;;;;;30.15;17.05;;;;;;;;;;5075683;28;20215;-52
2020/12/10 04:21:18;;;;;;;30.33;17.50;;;;;;;;;;5057443;28;20433;-55
2020/12/10 04:23:46;;;;;;;30.92;18.55;;;;;;;;;;5054582;28;20192;-53
2020/12/10 04:26:32;;;;;;;32.65;18.65;;;;;;;;;;5034837;28;20279;-42
2020/12/10 04:31:55;;;;;;;35.45;17.83;;;;;;;;;;5032773;28;20291;-55
2020/12/10 04:34:22;;;;;;;28.98;17.73;;;;;;;;;;5034620;28;20193;-56
2020/12/10 04:36:50;;;;;;;32.47;17.60;;;;;;;;;;5034687;28;20195;-60
2020/12/10 04:39:16;;;;;;;28.00;16.55;;;;;;;;;;5035470;28;20201;-50
2020/12/10 04:41:45;;;;;;;27.95;15.55;;;;;;;;;;5034776;28;20224;-54
2020/12/10 04:44:30;;;;;;;25.83;17.10;;;;;;;;;;5034794;28;20232;-57
2020/12/10 04:47:10;;;;;;;34.70;16.80;;;;;;;;;;5035269;28;20361;-59
2020/12/10 04:49:43;;;;;;;26.20;17.25;;;;;;;;;;5034366;28;20236;-52
2020/12/10 04:52:30;;;;;;;31.00;19.48;;;;;;;;;;5032981;28;20196;-62
2020/12/10 04:58:07;;;;;;;28.77;19.05;;;;;;;;;;5063685;28;20265;-56
2020/12/10 05:00:55;;;;;;;31.27;17.98;;;;;;;;;;5072225;28;20200;-56
2020/12/10 05:03:27;;;;;;;28.48;17.42;;;;;;;;;;5068128;28;20370;-53
2020/12/10 05:06:01;;;;;;;33.13;16.92;;;;;;;;;;5074225;28;20217;-58
2020/12/10 05:08:35;;;;;;;33.50;18.20;;;;;;;;;;5060270;28;20525;-51
2020/12/10 05:11:14;;;;;;;34.03;18.80;;;;;;;;;;5074633;28;20225;-58
2020/12/10 05:14:03;;;;;;;28.65;18.75;;;;;;;;;;5073489;28;20198;-54
2020/12/10 05:16:40;;;;;;;28.08;16.63;;;;;;;;;;5066661;28;20187;-54
2020/12/10 05:19:47;;;;;;;29.35;17.05;;;;;;;;;;5074495;28;20213;-53
2020/12/10 05:22:16;;;;;;;28.05;18.00;;;;;;;;;;5059655;28;20217;-59
2020/12/10 05:24:44;;;;;;;29.83;16.98;;;;;;;;;;5054037;28;20214;-56
2020/12/10 05:27:15;;;;;;;30.38;18.38;;;;;;;;;;5054545;28;20255;-58
2020/12/10 05:30:01;;;;;;;33.55;17.13;;;;;;;;;;5073736;28;20257;-57
2020/12/10 05:32:43;;;;;;;33.60;18.40;;;;;;;;;;5074080;28;20240;-56
2020/12/10 05:38:25;;;;;;;27.83;16.90;;;;;;;;;;5051738;28;20185;-52
2020/12/10 05:40:53;;;;;;;30.70;17.10;;;;;;;;;;5054281;28;20196;-54
2020/12/10 05:43:23;;;;;;;24.83;16.42;;;;;;;;;;5067775;28;20277;-55
2020/12/10 05:48:26;;;;;;;32.83;20.03;;;;;;;;;;5072310;28;20237;-55
2020/12/10 05:51:16;;;;;;;34.05;19.05;;;;;;;;;;5054962;28;20242;-54
2020/12/10 05:53:43;;;;;;;28.55;16.98;;;;;;;;;;5062165;28;20215;-52
2020/12/10 05:56:15;;;;;;;28.60;16.60;;;;;;;;;;5073861;28;20205;-58
2020/12/10 05:58:47;;;;;;;29.05;18.42;;;;;;;;;;5074212;28;20267;-59
2020/12/10 06:01:25;;;;;;;33.80;20.35;;;;;;;;;;5073737;28;20206;-52
2020/12/10 06:04:01;;;;;;;33.13;18.92;;;;;;;;;;5074785;28;20251;-53
2020/12/10 06:06:30;;;;;;;29.98;16.75;;;;;;;;;;5073433;28;20220;-52
2020/12/10 06:09:01;;;;;;;29.70;19.17;;;;;;;;;;5073193;28;20233;-56
2020/12/10 06:11:52;;;;;;;28.98;18.15;;;;;;;;;;5073882;28;20208;-54
2020/12/10 06:14:20;;;;;;;29.38;19.40;;;;;;;;;;5073569;28;20199;-60
2020/12/10 06:16:47;;;;;;;38.60;22.75;;;;;;;;;;5073838;28;20207;-58
2020/12/10 06:19:17;;;;;;;29.27;18.75;;;;;;;;;;5076860;28;20633;-52
2020/12/10 06:24:36;;;;;;;35.38;21.40;;;;;;;;;;5058294;28;20246;-57
2020/12/10 06:27:28;;;;;;;35.97;18.77;;;;;;;;;;5057739;28;20192;-59
2020/12/10 06:30:23;;;;;;;36.60;19.83;;;;;;;;;;5001276;28;20253;-57
2020/12/10 06:32:56;;;;;;;30.90;19.23;;;;;;;;;;5070169;28;20191;-57
2020/12/10 06:35:37;;;;;;;36.80;19.80;;;;;;;;;;5075281;28;20315;-49
2020/12/10 06:38:09;;;;;;;27.60;17.98;;;;;;;;;;5077389;28;20209;-58
2020/12/10 06:40:44;;;;;;;40.13;18.40;;;;;;;;;;5078010;28;20203;-62
2020/12/10 06:47:05;;;;;;;29.48;18.98;;;;;;;;;;5042763;28;20190;-51
2020/12/10 06:53:12;;;;;;;28.52;16.88;;;;;;;;;;5060507;28;20221;-55
2020/12/10 06:56:08;;;;;;;33.38;17.52;;;;;;;;;;5076839;28;20278;-54
2020/12/10 06:58:53;;;;;;;32.50;17.95;;;;;;;;;;5016872;28;20202;-53
2020/12/10 07:01:26;;;;;;;30.33;18.30;;;;;;;;;;5076374;28;20202;-57
2020/12/10 07:13:25;;;;;;;34.97;19.58;;;;;;;;;;5058089;28;20219;-54
2020/12/10 07:16:22;;;;;;;30.30;19.08;;;;;;;;;;5060294;28;20257;-55
2020/12/10 07:18:51;;;;;;;32.88;19.00;;;;;;;;;;5075703;28;20235;-57
2020/12/10 07:21:36;;;;;;;31.77;20.40;;;;;;;;;;5076025;28;20195;-57
2020/12/10 07:24:03;;;;;;;34.70;19.42;;;;;;;;;;5061031;28;20200;-49
2020/12/10 07:26:37;;;;;;;27.48;16.58;;;;;;;;;;5067336;28;20340;-51
2020/12/10 07:29:16;;;;;;;31.00;18.02;;;;;;;;;;5066326;28;20223;-58
2020/12/10 07:31:44;;;;;;;41.15;20.13;;;;;;;;;;5056796;28;20215;-55
2020/12/10 07:34:22;;;;;;;35.03;21.10;;;;;;;;;;5057010;28;20227;-54
2020/12/10 07:37:02;;;;;;;34.00;20.77;;;;;;;;;;5055252;28;20234;-56
2020/12/10 07:39:49;;;;;;;32.38;19.65;;;;;;;;;;5055655;28;20225;-53
2020/12/10 07:42:29;;;;;;;35.53;20.15;;;;;;;;;;5055538;28;20200;-49
2020/12/10 07:45:30;;;;;;;31.33;18.85;;;;;;;;;;5055464;28;20210;-54
2020/12/10 07:48:03;;;;;;;30.85;17.75;;;;;;;;;;5060805;28;20211;-55
2020/12/10 07:53:49;;;;;;;33.55;20.55;;;;;;;;;;5055756;28;20219;-58
2020/12/10 07:56:22;;;;;;;32.03;18.90;;;;;;;;;;5055559;28;20214;-60
2020/12/10 07:59:03;;;;;;;37.30;19.20;;;;;;;;;;5055835;28;20181;-50
2020/12/10 08:01:35;;;;;;;31.27;18.63;;;;;;;;;;5055487;28;20208;-52
2020/12/10 08:04:31;;;;;;;31.50;18.90;;;;;;;;;;5069724;28;20199;-58
2020/12/10 08:07:01;;;;;;;37.40;18.40;;;;;;;;;;5072257;28;20199;-58
2020/12/10 08:09:38;;;;;;;33.08;20.67;;;;;;;;;;5066423;28;20228;-57
2020/12/10 08:12:17;;;;;;;35.28;18.80;;;;;;;;;;5075690;28;20251;-57
2020/12/10 08:14:53;;;;;;;27.90;17.55;;;;;;;;;;5075801;28;20218;-57
2020/12/10 08:17:27;;;;;;;35.83;20.17;;;;;;;;;;5076409;28;20214;-54
2020/12/10 08:19:58;;;;;;;32.50;17.88;;;;;;;;;;5072827;28;20206;-54
2020/12/10 08:22:30;;;;;;;35.55;20.10;;;;;;;;;;5075379;28;20202;-53
2020/12/10 08:25:25;;;;;;;35.55;19.65;;;;;;;;;;5055608;28;20222;-54
2020/12/10 08:28:20;;;;;;;35.85;19.00;;;;;;;;;;5064388;28;20227;-54
2020/12/10 08:34:01;;;;;;;36.05;20.67;;;;;;;;;;5022233;28;20210;-53
2020/12/10 08:36:42;;;;;;;29.40;16.05;;;;;;;;;;5049216;28;20215;-56
2020/12/10 08:39:09;;;;;;;34.08;19.70;;;;;;;;;;5054295;28;20212;-59
2020/12/10 08:41:47;;;;;;;24.90;16.95;;;;;;;;;;5054932;28;20195;-54
2020/12/10 08:44:28;;;;;;;28.40;16.98;;;;;;;;;;5055257;28;20196;-55
2020/12/10 08:47:01;;;;;;;27.27;17.27;;;;;;;;;;5055000;28;20199;-56
2020/12/10 08:49:33;;;;;;;27.30;17.35;;;;;;;;;;5055355;28;20233;-55
2020/12/10 08:52:00;;;;;;;28.60;17.02;;;;;;;;;;5054828;28;20196;-53
2020/12/10 08:54:57;;;;;;;28.80;18.45;;;;;;;;;;5054964;28;20279;-58
2020/12/10 08:57:50;;;;;;;30.58;18.13;;;;;;;;;;5055375;28;20200;-54
2020/12/10 09:00:19;;;;;;;26.77;16.55;;;;;;;;;;5054896;28;20209;-53
2020/12/10 09:02:47;;;;;;;26.35;16.98;;;;;;;;;;5066963;28;20217;-53
2020/12/10 09:05:17;;;;;;;29.30;17.23;;;;;;;;;;5075218;28;20195;-59
2020/12/10 09:07:45;;;;;;;25.55;14.82;;;;;;;;;;5074928;28;20210;-56
2020/12/10 09:10:12;;;;;;;32.97;17.50;;;;;;;;;;5075530;28;20271;-52
2020/12/10 09:12:44;;;;;;;32.33;16.55;;;;;;;;;;5075558;28;20250;-55
2020/12/10 09:18:17;;;;;;;27.20;16.15;;;;;;;;;;5075514;28;20258;-56
2020/12/10 09:20:48;;;;;;;25.98;16.13;;;;;;;;;;5057869;28;20233;-52
2020/12/10 09:23:43;;;;;;;25.10;15.50;;;;;;;;;;5057410;28;20286;-56
2020/12/10 09:26:17;;;;;;;24.23;13.68;;;;;;;;;;5069933;28;20238;-53
2020/12/10 09:28:47;;;;;;;30.38;14.90;;;;;;;;;;5074148;28;20204;-55
2020/12/10 09:31:22;;;;;;;24.10;16.13;;;;;;;;;;5073779;28;20250;-55
2020/12/10 09:33:54;;;;;;;21.73;12.88;;;;;;;;;;5074452;28;20225;-57
2020/12/10 09:36:21;;;;;;;21.88;13.10;;;;;;;;;;5074277;28;20185;-55
2020/12/10 09:38:49;;;;;;;20.00;13.27;;;;;;;;;;5074653;28;20212;-56
2020/12/10 09:41:55;;;;;;;20.30;13.70;;;;;;;;;;5074801;28;20205;-55
2020/12/10 09:44:24;;;;;;;21.83;14.20;;;;;;;;;;5073155;28;20192;-54
2020/12/10 09:46:55;;;;;;;21.30;11.82;;;;;;;;;;5073976;28;20198;-57
2020/12/10 09:49:28;;;;;;;22.70;13.63;;;;;;;;;;5074278;28;20243;-54
2020/12/10 09:52:01;;;;;;;21.75;12.93;;;;;;;;;;5074469;28;20211;-56
2020/12/10 09:54:40;;;;;;;18.55;12.90;;;;;;;;;;5077552;28;20211;-57
2020/12/10 09:57:33;;;;;;;19.95;12.25;;;;;;;;;;5076162;28;20232;-51
2020/12/10 10:00:10;;;;;;;19.55;12.85;;;;;;;;;;5064288;28;20216;-52
2020/12/10 10:02:37;;;;;;;23.98;11.02;;;;;;;;;;5062215;28;20247;-50
2020/12/10 10:05:22;;;;;;;20.13;12.23;;;;;;;;;;5057914;28;20214;-49
2020/12/10 10:08:05;;;;;;;20.67;12.43;;;;;;;;;;5071452;28;20250;-53
2020/12/10 10:10:33;;;;;;;20.75;12.15;;;;;;;;;;5078328;28;20266;-56
2020/12/10 10:13:07;;;;;;;17.55;11.63;;;;;;;;;;5076994;28;20202;-55
2020/12/10 10:15:37;;;;;;;21.13;9.68;;;;;;;;;;5077256;28;20200;-50
2020/12/10 10:18:07;;;;;;;18.00;10.65;;;;;;;;;;5067430;28;20195;-56
2020/12/10 10:20:37;;;;;;;19.70;13.95;;;;;;;;;;5057853;28;20202;-54
2020/12/10 10:23:04;;;;;;;20.08;13.40;;;;;;;;;;5056815;28;20216;-57
2020/12/10 10:25:31;;;;;;;16.48;10.45;;;;;;;;;;5058370;28;20305;-52
2020/12/10 10:28:27;;;;;;;15.27;9.13;;;;;;;;;;5066070;28;20191;-57
2020/12/10 10:31:09;;;;;;;21.75;12.93;;;;;;;;;;5071331;28;20220;-53
2020/12/10 10:33:37;;;;;;;17.63;9.43;;;;;;;;;;5078023;28;20195;-58
2020/12/10 10:36:09;;;;;;;14.07;8.82;;;;;;;;;;5075887;28;20245;-54
2020/12/10 10:38:43;;;;;;;16.45;10.32;;;;;;;;;;5078677;28;20231;-55
2020/12/10 10:41:20;;;;;;;23.20;13.27;;;;;;;;;;5075575;28;20203;-58
2020/12/10 10:43:59;;;;;;;16.65;10.50;;;;;;;;;;5076942;28;20292;-58
2020/12/10 10:46:51;;;;;;;17.33;9.20;;;;;;;;;;5076949;28;20209;-59
2020/12/10 10:49:20;;;;;;;15.27;9.43;;;;;;;;;;5075111;28;20466;-58
2020/12/10 10:52:00;;;;;;;14.57;9.45;;;;;;;;;;5075797;28;20199;-54
2020/12/10 10:54:29;;;;;;;13.60;8.93;;;;;;;;;;5057069;28;20192;-50
2020/12/10 10:57:14;;;;;;;18.60;10.65;;;;;;;;;;5074097;28;20192;-53
2020/12/10 10:59:47;;;;;;;13.60;9.02;;;;;;;;;;5076969;28;20212;-56
2020/12/10 11:02:17;;;;;;;14.60;9.60;;;;;;;;;;5075866;28;20276;-55
2020/12/10 11:04:51;;;;;;;11.73;8.50;;;;;;;;;;5075684;28;20235;-55
2020/12/10 11:07:20;;;;;;;16.65;9.57;;;;;;;;;;5075636;28;20196;-51
2020/12/10 11:09:48;;;;;;;14.23;8.02;;;;;;;;;;5075385;28;20296;-50
2020/12/10 11:12:15;;;;;;;17.77;9.70;;;;;;;;;;5075859;28;20204;-60
2020/12/10 11:14:46;;;;;;;15.50;9.30;;;;;;;;;;5074902;28;20240;-56
2020/12/10 11:17:37;;;;;;;17.52;12.00;;;;;;;;;;5075387;28;20212;-57
2020/12/10 11:20:06;;;;;;;15.07;9.48;;;;;;;;;;5074554;28;20273;-53
2020/12/10 11:26:01;;;;;;;18.77;14.27;;;;;;;;;;5016998;28;20292;-57
2020/12/10 11:28:31;;;;;;;17.85;10.48;;;;;;;;;;5073945;28;20209;-58
2020/12/10 11:31:05;;;;;;;12.52;8.48;;;;;;;;;;5075341;28;20235;-59
2020/12/10 11:36:39;;;;;;;14.40;9.00;;;;;;;;;;5075191;28;20329;-50
2020/12/10 11:39:06;;;;;;;10.60;7.15;;;;;;;;;;5075020;28;20213;-48
2020/12/10 11:41:40;;;;;;;12.27;8.13;;;;;;;;;;5075696;28;20193;-53
2020/12/10 11:44:29;;;;;;;12.10;6.70;;;;;;;;;;5058253;28;20202;-53
2020/12/10 11:47:25;;;;;;;10.68;6.85;;;;;;;;;;5067577;28;20237;-58
2020/12/10 11:49:52;;;;;;;11.32;7.55;;;;;;;;;;5054985;28;20233;-49
2020/12/10 11:52:25;;;;;;;10.65;7.82;;;;;;;;;;5054043;28;20205;-56
2020/12/10 11:54:54;;;;;;;14.75;9.10;;;;;;;;;;5055034;28;20190;-55
2020/12/10 11:57:22;;;;;;;8.80;6.00;;;;;;;;;;5046472;28;20269;-56
2020/12/10 12:06:14;;;;;;;13.35;8.50;;;;;;;;;;5065170;28;20229;-57
2020/12/10 12:11:55;;;;;;;12.98;6.25;;;;;;;;;;5051721;28;20215;-46
2020/12/10 12:29:26;;;;;;;14.07;9.20;;;;;;;;;;4978893;28;1962937;-59
2020/12/10 12:35:10;;;;;;;13.13;8.00;;;;;;;;;;5058410;28;20349;-54
2020/12/10 13:04:23;;;;;;;13.03;7.20;;;;;;;;;;5072171;28;20213;-54
2020/12/10 13:06:58;;;;;;;11.43;8.13;;;;;;;;;;4995757;28;20226;-60
2020/12/10 13:23:31;;;;;;;13.20;7.97;;;;;;;;;;5070761;28;20189;-55
2020/12/10 13:31:46;;;;;;;9.87;6.80;;;;;;;;;;5067775;28;20232;-53
2020/12/10 13:49:12;;;;;;;14.05;7.43;;;;;;;;;;5069462;28;20200;-56
2020/12/10 14:50:27;;;;;;;13.25;7.50;;;;;;;;;;5070732;28;20251;-54
2020/12/10 14:55:58;;;;;;;12.68;7.13;;;;;;;;;;5071719;28;20645;-60
2020/12/10 15:07:17;;;;;;;11.60;6.97;;;;;;;;;;5070918;28;20299;-56
2020/12/10 15:10:08;;;;;;;14.25;8.82;;;;;;;;;;5071629;28;20344;-52
2020/12/10 15:30:15;;;;;;;11.13;6.80;;;;;;;;;;5027202;28;20216;-55
2020/12/10 15:32:58;;;;;;;10.15;7.35;;;;;;;;;;5062923;28;20248;-52
2020/12/10 15:57:30;;;;;;;12.52;8.38;;;;;;;;;;5041005;28;20272;-57
2020/12/10 16:00:22;;;;;;;13.48;7.45;;;;;;;;;;5078106;28;20227;-56
2020/12/10 16:03:16;;;;;;;9.15;6.78;;;;;;;;;;5093170;28;20252;-55
2020/12/10 16:09:00;;;;;;;13.77;7.30;;;;;;;;;;5072041;28;20206;-48
2020/12/10 16:14:50;;;;;;;11.13;6.95;;;;;;;;;;5072004;28;20276;-54
2020/12/10 16:58:39;;;;;;;14.30;10.73;;;;;;;;;;5073946;28;20226;-52
2020/12/10 17:04:19;;;;;;;18.35;11.63;;;;;;;;;;5089594;28;20237;-56
2020/12/10 17:06:48;;;;;;;16.15;9.73;;;;;;;;;;5093294;28;20254;-52
2020/12/10 17:09:42;;;;;;;20.42;12.45;;;;;;;;;;5093712;28;20221;-53
2020/12/10 17:12:16;;;;;;;16.02;11.40;;;;;;;;;;5090981;28;20246;-61
2020/12/10 17:14:48;;;;;;;19.70;11.25;;;;;;;;;;5101165;28;20377;-56
2020/12/10 17:17:23;;;;;;;12.82;10.10;;;;;;;;;;5084920;28;20203;-56
2020/12/10 17:19:50;;;;;;;12.98;9.88;;;;;;;;;;5092888;28;20234;-59
2020/12/10 17:22:22;;;;;;;18.30;12.13;;;;;;;;;;5089406;28;20214;-57
2020/12/10 17:24:53;;;;;;;20.63;12.82;;;;;;;;;;5088064;28;20234;-47
2020/12/10 17:27:44;;;;;;;16.08;11.05;;;;;;;;;;5091924;28;20215;-53
2020/12/10 17:30:28;;;;;;;15.88;10.20;;;;;;;;;;5086124;28;20238;-53
2020/12/10 17:39:05;;;;;;;17.65;11.20;;;;;;;;;;5079467;28;20184;-56
2020/12/10 17:41:34;;;;;;;15.90;10.75;;;;;;;;;;5087042;28;20221;-57
2020/12/10 17:44:02;;;;;;;17.85;10.90;;;;;;;;;;5091076;28;20199;-49
2020/12/10 17:46:30;;;;;;;16.23;10.35;;;;;;;;;;5093217;28;20176;-58
2020/12/10 17:49:00;;;;;;;14.73;10.70;;;;;;;;;;5092396;28;20200;-52
2020/12/10 17:51:29;;;;;;;14.25;10.55;;;;;;;;;;5087546;28;20231;-56
2020/12/10 17:54:04;;;;;;;15.45;11.52;;;;;;;;;;5091979;28;20215;-56
2020/12/10 17:56:41;;;;;;;14.20;11.30;;;;;;;;;;5088742;28;20207;-47
2020/12/10 17:59:20;;;;;;;15.00;10.63;;;;;;;;;;5092749;28;20227;-57
2020/12/10 18:04:50;;;;;;;14.25;10.85;;;;;;;;;;5093342;28;20203;-52
2020/12/10 18:07:20;;;;;;;12.70;8.82;;;;;;;;;;5092157;28;20210;-55
2020/12/10 18:09:51;;;;;;;19.67;10.45;;;;;;;;;;5092075;28;20221;-57
2020/12/10 18:12:42;;;;;;;15.90;10.45;;;;;;;;;;5089923;28;20245;-48
2020/12/10 18:15:32;;;;;;;15.55;9.98;;;;;;;;;;5095643;28;20230;-54
2020/12/10 18:18:21;;;;;;;16.45;8.90;;;;;;;;;;5090977;28;20356;-53
2020/12/10 18:20:55;;;;;;;11.88;8.18;;;;;;;;;;5096620;28;20424;-45
2020/12/10 18:23:52;;;;;;;17.00;10.55;;;;;;;;;;5094770;28;20219;-59
2020/12/10 18:26:31;;;;;;;15.57;9.07;;;;;;;;;;5076083;28;20216;-58
2020/12/10 18:31:40;;;;;;;13.27;9.02;;;;;;;;;;5074239;28;20274;-60
2020/12/10 18:34:12;;;;;;;12.70;8.52;;;;;;;;;;5076318;28;20202;-53
2020/12/10 18:36:42;;;;;;;12.15;8.60;;;;;;;;;;5076344;28;20215;-50
2020/12/10 18:39:17;;;;;;;11.23;7.88;;;;;;;;;;5074454;28;20199;-60
2020/12/10 18:41:47;;;;;;;11.18;7.82;;;;;;;;;;5074659;28;20242;-54
2020/12/10 18:44:31;;;;;;;12.02;7.72;;;;;;;;;;5076588;28;20203;-53
2020/12/10 18:46:58;;;;;;;15.05;7.38;;;;;;;;;;5075490;28;20200;-56
2020/12/10 18:49:26;;;;;;;12.55;8.85;;;;;;;;;;5073367;28;20231;-53
2020/12/10 18:52:00;;;;;;;15.98;8.15;;;;;;;;;;5067465;28;20250;-52
2020/12/10 18:57:43;;;;;;;12.85;7.93;;;;;;;;;;5070315;28;20257;-56
2020/12/10 19:00:11;;;;;;;13.02;8.40;;;;;;;;;;5075949;28;20340;-57
2020/12/10 19:02:45;;;;;;;12.95;9.52;;;;;;;;;;5075560;28;20235;-49
2020/12/10 19:05:13;;;;;;;14.95;8.45;;;;;;;;;;5070222;28;20191;-55
2020/12/10 19:10:45;;;;;;;13.57;8.75;;;;;;;;;;5066010;28;20257;-53
2020/12/10 19:13:12;;;;;;;12.05;8.90;;;;;;;;;;5064712;28;20192;-56
2020/12/10 19:15:50;;;;;;;11.68;8.73;;;;;;;;;;5075611;28;20198;-52
2020/12/10 19:18:18;;;;;;;13.63;8.98;;;;;;;;;;5073479;28;20239;-57
2020/12/10 19:20:48;;;;;;;14.05;10.40;;;;;;;;;;5057030;28;20201;-55
2020/12/10 19:23:24;;;;;;;15.27;9.95;;;;;;;;;;5056219;28;20216;-55
2020/12/10 19:25:55;;;;;;;13.30;9.35;;;;;;;;;;5075157;28;20191;-56
2020/12/10 19:28:25;;;;;;;15.20;9.93;;;;;;;;;;5074195;28;20202;-57
2020/12/10 19:30:58;;;;;;;13.70;9.65;;;;;;;;;;5068199;28;20282;-59
2020/12/10 19:34:04;;;;;;;12.70;10.60;;;;;;;;;;5079766;28;20188;-58
2020/12/10 19:39:26;;;;;;;16.67;10.90;;;;;;;;;;5095175;28;20227;-58
2020/12/10 19:42:13;;;;;;;19.38;11.85;;;;;;;;;;5095220;28;20217;-57
2020/12/10 19:44:41;;;;;;;14.90;10.70;;;;;;;;;;5095934;28;20246;-56
2020/12/10 19:47:10;;;;;;;15.20;10.05;;;;;;;;;;5096208;28;20202;-50
2020/12/10 19:49:37;;;;;;;15.25;10.25;;;;;;;;;;5095900;28;20188;-47
2020/12/10 19:52:22;;;;;;;21.73;11.93;;;;;;;;;;5095752;28;20241;-48
2020/12/10 19:54:50;;;;;;;16.73;11.88;;;;;;;;;;5094848;28;20215;-57
2020/12/10 19:57:30;;;;;;;14.77;11.13;;;;;;;;;;5084226;28;20189;-51
2020/12/10 20:00:05;;;;;;;14.63;10.93;;;;;;;;;;5084930;28;20287;-56
2020/12/10 20:02:42;;;;;;;17.23;11.10;;;;;;;;;;5082288;28;20449;-58
2020/12/10 20:08:11;;;;;;;15.18;11.10;;;;;;;;;;5080214;28;20200;-50
2020/12/10 20:10:52;;;;;;;19.02;11.60;;;;;;;;;;5094042;28;20239;-57
2020/12/10 20:13:27;;;;;;;18.38;12.10;;;;;;;;;;5083877;28;20203;-55
2020/12/10 20:15:59;;;;;;;19.05;11.43;;;;;;;;;;5083883;28;20226;-56
2020/12/10 20:18:37;;;;;;;20.02;13.88;;;;;;;;;;5091034;28;20211;-50
2020/12/10 20:21:06;;;;;;;20.05;11.68;;;;;;;;;;5082063;28;20215;-55
2020/12/10 20:23:50;;;;;;;19.80;13.23;;;;;;;;;;5092727;28;20220;-49
2020/12/10 20:26:28;;;;;;;15.77;11.40;;;;;;;;;;5089785;28;20187;-56
2020/12/10 20:29:02;;;;;;;18.35;12.80;;;;;;;;;;5088935;28;20214;-49
2020/12/10 20:31:29;;;;;;;16.65;11.48;;;;;;;;;;5079439;28;20262;-57
2020/12/10 20:33:57;;;;;;;17.40;11.38;;;;;;;;;;5075473;28;20310;-50